Snow/Ice From: 17-12-2018 09:00 Until: 17:00 warning for: Snow/Ice Level: Yellow info button
suomi:
Liikennesää: Ajokeli muuttuu huonoksi päivällä lumisateen vuoksi.

svenska:
Trafikvädret: Väglaget blir dåligt på dagen p.g.a. snöfall.

english:
Traffic weather warning: Bad road conditions are expected at noon and in the afternoon because of snow. 


Thunder radar more information blitzortung!


Löydät sääaseman tiedot myös:

European Weather Network

Finland Weather Exchange

Weather Underground

AWEKAS



Weather Underground säähistoriasivu

Päivittäin yhteenveto Tou 13, 2017 Yksiköt:  Metriset    Englantilaiset   Molemmat
« Edellinen Päivä
Seuraava Päivä »
Päivittäin Viikoittain Kuukausittain Vuosittain Mukautettu
  Korkea: Matala: Keskiarvo:
Lämpötila: -17.8 °C -17.9 °C -14.4 °C
Kastepiste: -17.8 °C -22.9 °C -19.3 °C
Kosteus: Humidity % 25 % 57 %
Tuulen nopeus: 0 km/h 0 km/h 4.7 km/h
Tuulenpuuska: 0 km/h - -
Tuuli:- - SW
Ilmanpaine: 0 hPa 34428.8 hPa -
Sade: 0 mm    
Historical Graphs
 
 
Taulukkotiedot Tou 13, 2017
Aika Lämpötila Kastepiste Ilmanpaine Tuuli Tuulen nopeus Tuulenpuuska Kosteus Sademäärä (tunneittain)
-17.8 °C -17.8 °C 0 hPa Calm     Humidity % 0 mm
00:00 -17.4 °C -18.9 °C 34428.8 hPa Calm     82 % 0 mm
00:15 -17.6 °C -18.9 °C 34428.8 hPa Calm     83 % 0 mm
00:30 -17.6 °C -18.8 °C 34428.8 hPa Calm   5.1 km/h 85 % 0 mm
00:45 -17.6 °C -18.9 °C 34428.8 hPa Calm     84 % 0 mm
01:00 -17.7 °C -18.9 °C 34428.8 hPa Calm     85 % 0 mm
01:15 -17.7 °C -18.9 °C 34428.8 hPa Calm     86 % 0 mm
01:30 -17.7 °C -18.9 °C 34442.4 hPa Calm     86 % 0 mm
01:45 -17.8 °C -18.8 °C 34442.4 hPa Calm     87 % 0 mm
02:00 -17.8 °C -18.9 °C 34442.4 hPa Calm     87 % 0 mm
02:15 -17.8 °C -18.9 °C 34442.4 hPa Calm     87 % 0 mm
02:30 -17.9 °C -18.8 °C 34442.4 hPa Calm     88 % 0 mm
02:45 -17.9 °C -18.8 °C 34442.4 hPa Calm     88 % 0 mm
03:00 -17.9 °C -18.8 °C 34442.4 hPa Calm     88 % 0 mm
03:15 -17.8 °C -18.8 °C 34442.4 hPa Calm     88 % 0 mm
03:30 -17.8 °C -18.8 °C 34442.4 hPa Calm     88 % 0 mm
03:45 -17.8 °C -18.8 °C 34442.4 hPa Calm     88 % 0 mm
04:00 -17.8 °C -18.7 °C 34442.4 hPa Calm     89 % 0 mm
04:15 -17.8 °C -18.9 °C 34442.4 hPa Calm     87 % 0 mm
04:30 -17.8 °C -18.9 °C 34428.8 hPa Calm     87 % 0 mm
04:45 -17.8 °C -18.8 °C 34442.4 hPa Calm     87 % 0 mm
05:00 -17.8 °C -18.8 °C 34428.8 hPa Calm     87 % 0 mm
05:15 -17.8 °C -18.8 °C 34428.8 hPa Calm     87 % 0 mm
05:30 -17.8 °C -18.8 °C 34428.8 hPa Calm     87 % 0 mm
05:45 -17.7 °C -18.8 °C 34428.8 hPa Calm     87 % 0 mm
06:00 -17.6 °C -18.6 °C 34428.8 hPa Calm     88 % 0 mm
06:15 -17.5 °C -18.6 °C 34442.4 hPa Calm     87 % 0 mm
06:30 -17.4 °C -18.6 °C 34442.4 hPa Calm     86 % 0 mm
06:45 -17.2 °C -18.4 °C 34428.8 hPa Calm     86 % 0 mm
07:00 -17.1 °C -18.3 °C 34428.8 hPa Calm     86 % 0 mm
07:15 -16.8 °C -18.3 °C 34428.8 hPa Calm     83 % 0 mm
07:30 -16.6 °C -18.2 °C 34428.8 hPa Calm   2.6 km/h 81 % 0 mm
07:45 -16.2 °C -18.3 °C 34428.8 hPa WNW 2.6 km/h 7.7 km/h 77 % 0 mm
08:00 -15.9 °C -18.2 °C 34428.8 hPa SSW 5.1 km/h 15.6 km/h 74 % 0 mm
08:15 -15.7 °C -18.1 °C 34428.8 hPa SSW 2.6 km/h 12.9 km/h 73 % 0 mm
08:30 -15.4 °C -17.9 °C 34442.4 hPa Calm   7.7 km/h 72 % 0 mm
08:45 -15.2 °C -17.8 °C 34442.4 hPa SSE 2.6 km/h 15.6 km/h 72 % 0 mm
09:00 -15.1 °C -17.8 °C 34442.4 hPa South 2.6 km/h 10.3 km/h 70 % 0 mm
09:15 -14.8 °C -17.6 °C 34442.4 hPa South 2.6 km/h 12.9 km/h 70 % 0 mm
09:30 -14.5 °C -17.6 °C 34428.8 hPa South 2.6 km/h 12.9 km/h 68 % 0 mm
09:45 -14.3 °C -17.4 °C 34428.8 hPa South 5.1 km/h 15.6 km/h 67 % 0 mm
10:00 -13.8 °C -17.3 °C 34428.8 hPa SSW 5.1 km/h 18.2 km/h 64 % 0 mm
10:15 -13.2 °C -17.3 °C 34442.4 hPa WSW 5.1 km/h 15.6 km/h 60 % 0 mm
10:30 -12.9 °C -17.2 °C 34442.4 hPa SW 5.1 km/h 15.6 km/h 58 % 0 mm
10:45 -12.6 °C -17.3 °C 34442.4 hPa West 2.6 km/h 12.9 km/h 56 % 0 mm
11:00 -12.4 °C -17.2 °C 34442.4 hPa SW 7.7 km/h 20.8 km/h 55 % 0 mm
11:15 -12.4 °C -17.2 °C 34442.4 hPa SSW 10.3 km/h 25.9 km/h 55 % 0 mm
11:30 -11.9 °C -17.1 °C 34428.8 hPa SW 10.3 km/h 23.3 km/h 52 % 0 mm
11:45 -11.7 °C -17.1 °C 34428.8 hPa SSW 10.3 km/h 31.1 km/h 51 % 0 mm
12:00 -11.6 °C -17 °C 34442.4 hPa SSW 12.9 km/h 28.5 km/h 51 % 0 mm
12:15 -11.3 °C -17.3 °C 34442.4 hPa SW 10.3 km/h 31.1 km/h 48 % 0 mm
12:30 -11.6 °C -17.4 °C 34442.4 hPa SSW 15.6 km/h 41.4 km/h 49 % 0 mm
12:45 -11.8 °C -17.1 °C 34442.4 hPa SW 7.7 km/h 20.8 km/h 52 % 0 mm
13:15 -11.9 °C -17.9 °C 34442.4 hPa SSW 15.6 km/h 33.6 km/h 47 % 0 mm
13:30 -11.9 °C -18.1 °C 34452.6 hPa SSW 12.9 km/h 36.2 km/h 46 % 0 mm
13:45 -12 °C -18.6 °C 34452.6 hPa SSW 12.9 km/h 41.4 km/h 44 % 0 mm
14:00 -11.8 °C -18.7 °C 34452.6 hPa SSW 15.6 km/h 33.6 km/h 42 % 0 mm
14:15 -11.7 °C -19.2 °C 34462.7 hPa SSW 18.2 km/h 49.2 km/h 39 % 0 mm
14:30 -12.1 °C -19.5 °C 34462.7 hPa SSW 15.6 km/h 46.7 km/h 39 % 0 mm
14:45 -11.9 °C -20.2 °C 34462.7 hPa SSW 20.8 km/h 46.7 km/h 35 % 0 mm
15:00 -12.1 °C -20.1 °C 34476.3 hPa SSW 15.6 km/h 38.8 km/h 36 % 0 mm
15:15 -11.6 °C -19.4 °C 34476.3 hPa SW 10.3 km/h 36.2 km/h 37 % 0 mm
15:30 -11.6 °C -19.5 °C 34476.3 hPa SSW 15.6 km/h 33.6 km/h 37 % 0 mm
15:45 -11.6 °C -19.9 °C 34476.3 hPa West 12.9 km/h 33.6 km/h 35 % 0 mm
16:00 -11.2 °C -19.8 °C 34476.3 hPa WSW 10.3 km/h 23.3 km/h 34 % 0 mm
16:15 -11.3 °C -19.4 °C 34476.3 hPa WSW 10.3 km/h 36.2 km/h 36 % 0 mm
16:30 -11.2 °C -19.3 °C 34476.3 hPa West 10.3 km/h 28.5 km/h 36 % 0 mm
16:45 -11.3 °C -20 °C 34476.3 hPa SW 7.7 km/h 23.3 km/h 33 % 0 mm
17:00 -11.2 °C -19.9 °C 34476.3 hPa SW 7.7 km/h 28.5 km/h 33 % 0 mm
17:15 -11.2 °C -19.9 °C 34476.3 hPa West 10.3 km/h 28.5 km/h 33 % 0 mm
17:30 -11.3 °C -19.8 °C 34476.3 hPa West 7.7 km/h 23.3 km/h 34 % 0 mm
17:45 -11.2 °C -20.4 °C 34486.4 hPa SSW 7.7 km/h 20.8 km/h 31 % 0 mm
18:00 -11.4 °C -20.7 °C 34476.3 hPa SSW 10.3 km/h 20.8 km/h 31 % 0 mm
18:15 -11.6 °C -21.3 °C 34486.4 hPa SSW 10.3 km/h 36.2 km/h 29 % 0 mm
18:30 -11.6 °C -21.6 °C 34486.4 hPa SSW 10.3 km/h 25.9 km/h 28 % 0 mm
18:45 -11.8 °C -21.9 °C 34486.4 hPa SSW 12.9 km/h 33.6 km/h 27 % 0 mm
19:00 -11.8 °C -22.2 °C 34486.4 hPa SW 7.7 km/h 18.2 km/h 26 % 0 mm
19:15 -11.9 °C -22 °C 34486.4 hPa SW 7.7 km/h 23.3 km/h 27 % 0 mm
19:30 -12.3 °C -22.9 °C 34486.4 hPa SSW 7.7 km/h 25.9 km/h 25 % 0 mm
19:45 -12.4 °C -22.7 °C 34486.4 hPa SW 5.1 km/h 15.6 km/h 26 % 0 mm
20:00 -12.6 °C -22.7 °C 34486.4 hPa SSW 5.1 km/h 20.8 km/h 27 % 0 mm
20:15 -12.8 °C -22.1 °C 34486.4 hPa Calm   10.3 km/h 30 % 0 mm
20:30 -12.9 °C -21.9 °C 34486.4 hPa Calm   7.7 km/h 31 % 0 mm
20:45 -12.9 °C -21.7 °C 34486.4 hPa Calm   7.7 km/h 32 % 0 mm
21:00 -12.9 °C -22.2 °C 34486.4 hPa SSW 2.6 km/h 10.3 km/h 30 % 0 mm
21:15 -12.8 °C -22.8 °C 34496.6 hPa SSW 2.6 km/h 12.9 km/h 27 % 0 mm
21:30 -12.8 °C -22.8 °C 34496.6 hPa SSW 2.6 km/h 10.3 km/h 27 % 0 mm
21:45 -13 °C -22.2 °C 34496.6 hPa Calm   5.1 km/h 30 % 0 mm
22:00 -13.3 °C -21.8 °C 34496.6 hPa Calm     33 % 0 mm
22:15 -13.7 °C -21.7 °C 34510.1 hPa Calm     35 % 0 mm
22:30 -14.1 °C -20.7 °C 34510.1 hPa Calm     42 % 0 mm
22:45 -14.6 °C -20.3 °C 34510.1 hPa Calm     48 % 0 mm
23:00 -15.3 °C -20.3 °C 34510.1 hPa Calm     52 % 0 mm
23:15 -15.9 °C -20.6 °C 34510.1 hPa Calm     54 % 0 mm
23:30 -16.3 °C -20.6 °C 34510.1 hPa Calm     57 % 0 mm
23:45 -16.6 °C -21 °C 34510.1 hPa Calm     56 % 0 mm
Esan sääasema
Terveisin Weather Underground - 2.75 mb

Alkuperäinen skripti  Jim McMurry - jmcmurry@mwt.net Sovitettu myös templatelle  Wim van der Kuil - Leuven-Template.eu

Laitteet joita käytämme:

Sääasema
Davis VP2

Sääasemaohjelma
Cumulus

Sääaseman tietokone
Asus EeePC

Palveluntarjoaja
Suncomet

Davis VP2

Cumulus

Asus EeePC

Suncomet